Time;durP1;ratioP1;P1;durP2;ratioP2;P2;SDS_P1;SDS_P2;PMS_P1;PMS_P2;Temp;Humidity;BMP_temperature;BMP_pressure;BME280_temperature;BME280_humidity;BME280_pressure;Samples;Min_cycle;Max_cycle;Signal;HPM_P1;HPM_P2
2020/12/18 00:02:21;;;;;;;231.18;61.05;;;153.80;2252.80;;;;;;5075313;28;20386;-61
2020/12/18 00:04:47;;;;;;;160.95;53.53;;;153.90;2252.80;;;;;;5075171;28;20040;-62
2020/12/18 00:07:13;;;;;;;295.95;55.03;;;153.70;2252.80;;;;;;5075040;28;20094;-62
2020/12/18 00:09:39;;;;;;;175.70;53.83;;;153.60;2252.80;;;;;;5074832;28;20087;-60
2020/12/18 00:12:04;;;;;;;167.70;57.30;;;128.70;2252.80;;;;;;5075283;28;20042;-59
2020/12/18 00:14:30;;;;;;;147.40;51.22;;;128.80;2252.80;;;;;;5075139;28;20033;-64
2020/12/18 00:16:56;;;;;;;154.82;45.95;;;128.90;2252.80;;;;;;5075103;28;20025;-58
2020/12/18 00:19:22;;;;;;;200.57;48.22;;;128.60;2252.80;;;;;;5074967;28;20391;-57
2020/12/18 00:21:47;;;;;;;179.80;50.33;;;128.30;2252.80;;;;;;5074822;28;20024;-60
2020/12/18 00:24:13;;;;;;;127.05;43.45;;;128.60;2252.80;;;;;;5057038;28;20032;-61
2020/12/18 00:26:39;;;;;;;122.50;45.08;;;128.60;2252.80;;;;;;5075077;28;20024;-62
2020/12/18 00:29:04;;;;;;;130.52;45.28;;;128.90;2252.80;;;;;;5075422;28;20053;-60
2020/12/18 00:31:30;;;;;;;165.85;46.72;;;128.70;2252.80;;;;;;5075538;28;20021;-61
2020/12/18 00:33:56;;;;;;;160.90;46.20;;;128.50;2252.80;;;;;;5057126;28;20086;-63
2020/12/18 00:36:21;;;;;;;123.90;45.03;;;128.30;2252.80;;;;;;5075308;28;20063;-62
2020/12/18 00:38:47;;;;;;;122.63;44.15;;;128.40;2252.80;;;;;;5074769;28;20035;-62
2020/12/18 00:41:13;;;;;;;124.97;42.70;;;128.60;2252.80;;;;;;5075033;28;20036;-61
2020/12/18 00:43:39;;;;;;;139.07;44.88;;;128.70;2252.80;;;;;;5075201;28;20029;-61
2020/12/18 00:46:05;;;;;;;164.50;44.53;;;128.80;2252.80;;;;;;5075007;28;20040;-60
2020/12/18 00:48:31;;;;;;;134.20;45.40;;;153.60;2252.80;;;;;;5074898;28;20024;-62
2020/12/18 00:50:57;;;;;;;140.27;44.22;;;128.70;2252.80;;;;;;5075341;28;20409;-59
2020/12/18 00:53:23;;;;;;;164.68;47.55;;;128.50;2252.80;;;;;;5056951;28;20462;-61
2020/12/18 00:55:49;;;;;;;136.10;44.65;;;128.40;2252.80;;;;;;5074756;28;20029;-56
2020/12/18 00:58:15;;;;;;;131.18;44.70;;;128.30;2252.80;;;;;;5074697;28;20029;-61
2020/12/18 01:00:40;;;;;;;148.93;46.42;;;128.60;2252.80;;;;;;5073991;28;20027;-63
2020/12/18 01:03:06;;;;;;;143.18;45.55;;;128.60;2252.80;;;;;;5074205;28;20032;-62
2020/12/18 01:05:32;;;;;;;139.02;44.50;;;128.50;2252.80;;;;;;5074180;28;20045;-62
2020/12/18 01:07:57;;;;;;;129.02;45.72;;;128.60;2252.80;;;;;;5072408;28;20529;-59
2020/12/18 01:10:23;;;;;;;138.15;45.58;;;128.80;2252.80;;;;;;5074189;28;20021;-60
2020/12/18 01:12:50;;;;;;;132.63;46.47;;;153.60;2252.80;;;;;;5074144;28;20021;-61
2020/12/18 01:15:16;;;;;;;144.82;46.63;;;128.90;2252.80;;;;;;5073732;28;20407;-60
2020/12/18 01:17:42;;;;;;;133.80;45.67;;;128.90;2252.80;;;;;;5073863;28;20032;-61
2020/12/18 01:20:07;;;;;;;142.02;45.35;;;128.90;2252.80;;;;;;5071785;28;20421;-61
2020/12/18 01:22:33;;;;;;;145.05;46.53;;;128.90;2252.80;;;;;;5073664;28;20025;-58
2020/12/18 01:24:59;;;;;;;170.98;45.60;;;128.90;2252.80;;;;;;5073525;28;20497;-60
2020/12/18 01:27:24;;;;;;;133.38;45.45;;;153.70;2252.80;;;;;;5073566;28;20497;-61
2020/12/18 01:29:50;;;;;;;133.85;44.28;;;153.70;2252.80;;;;;;5071842;28;20028;-62
2020/12/18 01:32:16;;;;;;;137.60;47.20;;;153.70;2252.80;;;;;;5073417;28;20417;-59
2020/12/18 01:34:44;;;;;;;140.38;47.20;;;153.70;2252.80;;;;;;5073860;28;20076;-60
2020/12/18 01:37:13;;;;;;;126.63;47.33;;;153.90;2252.80;;;;;;5073482;28;20370;-62
2020/12/18 01:39:39;;;;;;;116.40;42.25;;;153.90;2252.80;;;;;;5072875;28;20543;-62
2020/12/18 01:42:05;;;;;;;115.50;44.97;;;153.80;2252.80;;;;;;5073474;28;20119;-62
2020/12/18 01:44:31;;;;;;;109.95;39.83;;;153.60;2252.80;;;;;;5073459;28;20059;-56
2020/12/18 01:46:57;;;;;;;112.60;43.40;;;153.90;2227.20;;;;;;5073110;28;20025;-61
2020/12/18 01:49:23;;;;;;;114.22;42.03;;;153.90;2227.20;;;;;;5072991;28;20454;-62
2020/12/18 01:51:50;;;;;;;120.85;44.03;;;154.00;2201.60;;;;;;5072479;28;20056;-61
2020/12/18 01:54:21;;;;;;;110.13;42.30;;;154.00;2227.20;;;;;;5071282;28;20040;-61
2020/12/18 01:56:48;;;;;;;131.70;45.40;;;154.10;2201.60;;;;;;5072902;28;20035;-59
2020/12/18 01:59:15;;;;;;;118.03;44.38;;;153.70;2252.80;;;;;;5073397;28;20068;-63
2020/12/18 02:01:41;;;;;;;124.63;45.10;;;153.90;2252.80;;;;;;5066754;28;20036;-58
2020/12/18 02:04:07;;;;;;;124.20;45.72;;;153.60;2252.80;;;;;;5072347;28;20387;-62
2020/12/18 02:06:36;;;;;;;110.35;42.97;;;153.70;2252.80;;;;;;5072247;28;20513;-59
2020/12/18 02:09:03;;;;;;;110.88;43.70;;;153.80;2252.80;;;;;;5072154;28;20029;-61
2020/12/18 02:11:29;;;;;;;103.00;41.20;;;153.90;2252.80;;;;;;5073566;28;20028;-62
2020/12/18 02:13:55;;;;;;;101.28;42.78;;;154.00;2227.20;;;;;;5072932;28;20367;-72
2020/12/18 02:16:21;;;;;;;95.43;39.90;;;154.00;2227.20;;;;;;5073406;28;20432;-56
2020/12/18 02:18:48;;;;;;;100.00;39.25;;;154.00;2201.60;;;;;;5072920;28;20390;-56
2020/12/18 02:21:14;;;;;;;103.00;42.20;;;154.10;2176.00;;;;;;5073123;28;20020;-57
2020/12/18 02:23:44;;;;;;;109.15;44.17;;;153.60;2252.80;;;;;;5073586;28;20081;-65
2020/12/18 02:26:14;;;;;;;118.55;43.33;;;128.90;2252.80;;;;;;5073030;28;20052;-60
2020/12/18 02:28:41;;;;;;;110.45;43.13;;;153.80;2252.80;;;;;;5073398;28;20031;-64
2020/12/18 02:31:09;;;;;;;115.82;43.47;;;153.90;2227.20;;;;;;5073419;28;20031;-72
2020/12/18 02:33:35;;;;;;;144.95;45.83;;;154.00;2252.80;;;;;;5073072;28;20040;-56
2020/12/18 02:36:02;;;;;;;141.50;45.50;;;153.70;2227.20;;;;;;5055165;28;20029;-64
2020/12/18 02:38:28;;;;;;;120.85;42.20;;;128.80;2252.80;;;;;;5071970;28;20027;-63
2020/12/18 02:40:54;;;;;;;118.57;43.13;;;128.40;2252.80;;;;;;5073024;28;20024;-61
2020/12/18 02:43:21;;;;;;;110.15;42.33;;;128.60;2252.80;;;;;;5073219;28;20421;-57
2020/12/18 02:45:47;;;;;;;105.40;41.20;;;153.60;2252.80;;;;;;5072693;28;20017;-57
2020/12/18 02:48:12;;;;;;;92.95;36.85;;;128.80;2252.80;;;;;;5073163;28;20031;-71
2020/12/18 02:50:38;;;;;;;91.25;37.72;;;153.60;2252.80;;;;;;5073377;28;20024;-56
2020/12/18 02:53:16;;;;;;;96.55;38.22;;;153.80;2201.60;;;;;;5073343;28;20556;-70
2020/12/18 02:55:42;;;;;;;82.35;35.90;;;153.80;2201.60;;;;;;5072868;28;20564;-62
2020/12/18 02:58:09;;;;;;;95.22;37.40;;;153.90;2201.60;;;;;;5072977;28;20033;-66
2020/12/18 03:00:35;;;;;;;90.95;38.53;;;153.90;2201.60;;;;;;5072615;28;20078;-69
2020/12/18 03:03:01;;;;;;;94.32;39.03;;;153.90;2176.00;;;;;;5072969;28;20442;-63
2020/12/18 03:05:27;;;;;;;95.20;37.47;;;154.00;2176.00;;;;;;5072863;28;20052;-62
2020/12/18 03:07:53;;;;;;;89.32;37.17;;;153.80;2201.60;;;;;;5072650;28;20029;-64
2020/12/18 03:10:18;;;;;;;92.45;37.20;;;153.90;2176.00;;;;;;5072289;28;20021;-62
2020/12/18 03:12:44;;;;;;;90.03;38.55;;;153.80;2201.60;;;;;;5072593;28;20070;-56
2020/12/18 03:15:10;;;;;;;88.57;38.53;;;153.80;2201.60;;;;;;5072413;28;20115;-58
2020/12/18 03:17:35;;;;;;;82.82;36.80;;;153.80;2201.60;;;;;;5072260;28;20129;-69
2020/12/18 03:20:01;;;;;;;80.15;35.20;;;128.80;2252.80;;;;;;5072709;28;20534;-65
2020/12/18 03:22:27;;;;;;;77.05;34.65;;;128.80;2252.80;;;;;;5072245;28;20474;-60
2020/12/18 03:24:53;;;;;;;78.45;33.33;;;128.90;2227.20;;;;;;5072798;28;20374;-58
2020/12/18 03:27:19;;;;;;;78.43;33.58;;;128.90;2227.20;;;;;;5072380;28;20052;-69
2020/12/18 03:29:44;;;;;;;80.05;35.53;;;153.60;2227.20;;;;;;5071907;28;20044;-63
2020/12/18 03:32:10;;;;;;;68.93;30.67;;;128.80;2227.20;;;;;;5072235;28;20521;-66
2020/12/18 03:34:35;;;;;;;63.60;30.65;;;153.60;2201.60;;;;;;5071660;28;20520;-66
2020/12/18 03:37:01;;;;;;;70.15;31.63;;;128.90;2227.20;;;;;;5054196;28;20375;-60
2020/12/18 03:39:27;;;;;;;71.68;33.10;;;128.80;2227.20;;;;;;5072343;28;20386;-56
2020/12/18 03:41:52;;;;;;;67.43;29.67;;;128.80;2252.80;;;;;;5072166;28;20352;-61
2020/12/18 03:44:18;;;;;;;69.35;30.02;;;128.80;2227.20;;;;;;5072596;28;20032;-59
2020/12/18 03:46:44;;;;;;;72.68;32.58;;;128.90;2227.20;;;;;;5070120;28;20371;-58
2020/12/18 03:49:09;;;;;;;72.03;30.33;;;153.60;2201.60;;;;;;5072519;28;20101;-63
2020/12/18 03:51:35;;;;;;;77.18;31.05;;;153.60;2201.60;;;;;;5054128;28;20040;-60
2020/12/18 03:54:01;;;;;;;81.10;31.13;;;153.70;2201.60;;;;;;5072371;28;20059;-61
2020/12/18 03:56:26;;;;;;;72.88;30.73;;;128.80;2227.20;;;;;;5071966;28;20537;-65
2020/12/18 03:58:52;;;;;;;86.55;31.13;;;128.70;2227.20;;;;;;5071951;28;20489;-62
2020/12/18 04:01:18;;;;;;;88.10;34.70;;;128.80;2252.80;;;;;;5072139;28;20029;-59
2020/12/18 04:03:44;;;;;;;85.95;31.38;;;128.70;2252.80;;;;;;5071854;28;20410;-79
2020/12/18 04:06:09;;;;;;;92.78;33.65;;;128.50;2252.80;;;;;;5072366;28;20044;-57
2020/12/18 04:08:35;;;;;;;99.45;34.08;;;128.50;2252.80;;;;;;5072446;28;20033;-71
2020/12/18 04:11:00;;;;;;;103.80;41.92;;;128.20;2252.80;;;;;;5071580;28;20032;-57
2020/12/18 04:13:26;;;;;;;89.90;35.13;;;128.10;2252.80;;;;;;5054264;28;20116;-60
2020/12/18 04:15:52;;;;;;;93.15;33.72;;;128.30;2252.80;;;;;;5072006;28;20040;-64
2020/12/18 04:18:17;;;;;;;86.93;31.33;;;128.30;2252.80;;;;;;5072379;28;20446;-71
2020/12/18 04:20:43;;;;;;;82.75;31.15;;;128.40;2252.80;;;;;;5072599;28;20430;-61
2020/12/18 04:23:09;;;;;;;83.40;30.27;;;128.30;2252.80;;;;;;5071975;28;20029;-78
2020/12/18 04:25:35;;;;;;;88.32;32.08;;;128.30;2252.80;;;;;;5072354;28;20035;-62
2020/12/18 04:28:00;;;;;;;94.72;33.05;;;128.40;2252.80;;;;;;5072245;28;20108;-65
2020/12/18 04:30:26;;;;;;;88.63;31.52;;;128.60;2252.80;;;;;;5072371;28;20459;-75
2020/12/18 04:32:52;;;;;;;90.82;31.60;;;128.60;2252.80;;;;;;5072200;28;20025;-62
2020/12/18 04:35:18;;;;;;;88.00;30.75;;;128.70;2252.80;;;;;;5072047;28;20036;-61
2020/12/18 04:37:43;;;;;;;99.07;34.22;;;128.80;2252.80;;;;;;5071721;28;20055;-64
2020/12/18 04:40:09;;;;;;;93.13;33.33;;;128.80;2252.80;;;;;;5072086;28;20029;-57
2020/12/18 04:42:35;;;;;;;109.85;35.88;;;128.60;2252.80;;;;;;5075972;28;20024;-58
2020/12/18 04:45:03;;;;;;;107.60;33.03;;;128.10;2252.80;;;;;;5076133;28;20506;-80
2020/12/18 04:47:29;;;;;;;92.95;34.20;;;128.00;2252.80;;;;;;5075857;28;20071;-60
2020/12/18 04:49:56;;;;;;;109.97;36.92;;;128.30;2252.80;;;;;;5076140;28;20052;-61
2020/12/18 04:52:23;;;;;;;101.68;35.88;;;128.30;2252.80;;;;;;5075834;28;20032;-76
2020/12/18 04:54:50;;;;;;;122.82;37.22;;;128.40;2252.80;;;;;;5075723;28;20032;-72
2020/12/18 04:57:21;;;;;;;101.18;33.35;;;128.50;2252.80;;;;;;5074928;28;20455;-65
2020/12/18 04:59:48;;;;;;;105.68;34.85;;;128.50;2252.80;;;;;;5075443;28;20467;-65
2020/12/18 05:02:15;;;;;;;102.90;34.03;;;128.60;2252.80;;;;;;5075391;28;20104;-65
2020/12/18 05:04:42;;;;;;;101.32;30.05;;;128.60;2252.80;;;;;;5075226;28;20111;-83
2020/12/18 05:07:08;;;;;;;111.80;32.55;;;128.40;2252.80;;;;;;5074701;28;20058;-61
2020/12/18 05:09:34;;;;;;;111.57;34.33;;;128.40;2252.80;;;;;;5075333;28;20059;-62
2020/12/18 05:12:07;;;;;;;115.63;34.13;;;128.40;2252.80;;;;;;5075449;28;20033;-79
2020/12/18 05:14:33;;;;;;;114.43;32.72;;;128.40;2252.80;;;;;;5075351;28;20032;-83
2020/12/18 05:17:09;;;;;;;121.03;32.08;;;128.50;2252.80;;;;;;5075372;28;20520;-78
2020/12/18 05:19:40;;;;;;;109.75;32.65;;;128.30;2252.80;;;;;;5075648;28;20035;-83
2020/12/18 05:22:07;;;;;;;104.05;34.28;;;128.30;2252.80;;;;;;5076050;28;20029;-82
2020/12/18 05:24:37;;;;;;;95.60;28.60;;;128.30;2252.80;;;;;;5061377;28;20561;-71
2020/12/18 05:27:04;;;;;;;170.52;65.90;;;128.40;2252.80;;;;;;5074564;28;20024;-66
2020/12/18 05:29:31;;;;;;;111.80;34.17;;;128.50;2252.80;;;;;;5074669;28;20031;-84
2020/12/18 05:32:01;;;;;;;94.28;30.95;;;128.60;2252.80;;;;;;5057616;28;20028;-78
2020/12/18 05:34:28;;;;;;;154.27;34.50;;;128.50;2252.80;;;;;;5075241;28;20032;-76
2020/12/18 05:36:54;;;;;;;118.07;30.88;;;128.30;2252.80;;;;;;5073720;28;20028;-65
2020/12/18 05:39:21;;;;;;;111.45;30.77;;;128.20;2252.80;;;;;;5074752;28;20032;-64
2020/12/18 05:42:03;;;;;;;120.45;33.47;;;128.30;2252.80;;;;;;5074418;28;20016;-65
2020/12/18 05:44:32;;;;;;;112.05;30.02;;;128.30;2252.80;;;;;;5074970;28;20425;-85
2020/12/18 05:47:16;;;;;;;115.70;31.67;;;128.20;2252.80;;;;;;5074702;28;20025;-58
2020/12/18 05:49:42;;;;;;;110.88;30.80;;;128.30;2252.80;;;;;;5074883;28;20154;-76
2020/12/18 05:52:17;;;;;;;109.38;34.15;;;128.30;2252.80;;;;;;5074598;28;20511;-69
2020/12/18 05:54:43;;;;;;;99.07;30.02;;;128.20;2252.80;;;;;;5073603;28;20103;-73
2020/12/18 05:57:16;;;;;;;92.82;28.25;;;128.30;2252.80;;;;;;5074216;28;20547;-73
2020/12/18 05:59:43;;;;;;;98.78;30.92;;;128.30;2252.80;;;;;;5073968;28;20024;-71
2020/12/18 06:02:12;;;;;;;94.05;30.63;;;128.20;2252.80;;;;;;5074152;28;20374;-71
2020/12/18 06:04:38;;;;;;;93.85;34.72;;;128.30;2252.80;;;;;;5074247;28;20029;-69
2020/12/18 06:07:05;;;;;;;95.57;29.92;;;128.40;2252.80;;;;;;5074289;28;20050;-74
2020/12/18 06:09:31;;;;;;;92.63;30.67;;;128.20;2252.80;;;;;;5074199;28;20427;-73
2020/12/18 06:11:57;;;;;;;113.30;35.78;;;128.20;2252.80;;;;;;5073875;28;20031;-80
2020/12/18 06:14:23;;;;;;;98.68;32.78;;;128.30;2252.80;;;;;;5073438;28;20032;-59
2020/12/18 06:16:50;;;;;;;88.57;29.77;;;128.50;2252.80;;;;;;5073108;28;20026;-57
2020/12/18 06:19:18;;;;;;;87.00;32.35;;;128.70;2252.80;;;;;;5073854;28;20021;-58
2020/12/18 06:21:58;;;;;;;99.20;33.75;;;128.80;2252.80;;;;;;5073256;28;20021;-57
2020/12/18 06:24:25;;;;;;;93.03;34.28;;;128.80;2252.80;;;;;;5073478;28;20056;-61
2020/12/18 06:26:55;;;;;;;92.25;32.53;;;128.90;2252.80;;;;;;5055553;28;20847;-59
2020/12/18 06:29:26;;;;;;;98.05;35.22;;;128.90;2252.80;;;;;;5056637;28;20382;-58
2020/12/18 06:31:52;;;;;;;89.53;31.50;;;153.70;2227.20;;;;;;5075652;28;20112;-69
2020/12/18 06:34:26;;;;;;;96.95;32.58;;;153.70;2227.20;;;;;;5061214;28;20478;-68
2020/12/18 06:36:52;;;;;;;92.60;34.83;;;153.70;2227.20;;;;;;5073772;28;20021;-77
2020/12/18 06:39:34;;;;;;;92.68;33.33;;;153.70;2227.20;;;;;;5073596;28;20096;-63
2020/12/18 06:42:16;;;;;;;95.57;34.35;;;153.80;2201.60;;;;;;5055641;28;20024;-74
2020/12/18 06:44:55;;;;;;;98.35;33.75;;;153.70;2227.20;;;;;;5061387;28;20035;-69
2020/12/18 06:47:26;;;;;;;93.20;33.05;;;153.80;2201.60;;;;;;5073619;28;20028;-62
2020/12/18 06:49:55;;;;;;;98.95;34.78;;;153.70;2201.60;;;;;;5073891;28;20360;-83
2020/12/18 06:52:42;;;;;;;108.90;35.67;;;153.70;2227.20;;;;;;5073530;28;20524;-69
2020/12/18 06:55:09;;;;;;;114.18;33.95;;;153.80;2227.20;;;;;;5067339;28;20409;-60
2020/12/18 06:57:38;;;;;;;116.63;36.20;;;153.80;2227.20;;;;;;5071997;28;20028;-61
2020/12/18 07:00:29;;;;;;;129.20;36.22;;;153.80;2252.80;;;;;;5036840;28;20040;-67
2020/12/18 07:02:56;;;;;;;120.13;37.08;;;153.70;2252.80;;;;;;5071452;28;20237;-58
2020/12/18 07:05:37;;;;;;;136.27;37.22;;;153.70;2252.80;;;;;;5069661;28;20084;-58
2020/12/18 07:08:09;;;;;;;111.03;34.47;;;153.80;2252.80;;;;;;5070589;28;20078;-60
2020/12/18 07:10:39;;;;;;;126.07;38.05;;;153.70;2252.80;;;;;;5070481;28;20017;-57
2020/12/18 07:13:06;;;;;;;115.45;35.97;;;153.70;2252.80;;;;;;5070168;28;20518;-57
2020/12/18 07:15:46;;;;;;;129.55;37.78;;;153.80;2227.20;;;;;;5069932;28;20113;-61
2020/12/18 07:18:27;;;;;;;123.93;38.90;;;153.90;2227.20;;;;;;5070400;28;20032;-60
2020/12/18 07:20:59;;;;;;;129.68;38.55;;;153.70;2252.80;;;;;;5072109;28;20095;-71
2020/12/18 07:23:26;;;;;;;138.10;42.53;;;153.70;2252.80;;;;;;5072681;28;20249;-59
2020/12/18 07:25:53;;;;;;;155.50;46.25;;;153.80;2252.80;;;;;;5072063;28;20103;-71
2020/12/18 07:28:19;;;;;;;145.10;44.40;;;153.90;2227.20;;;;;;5072065;28;20016;-56
2020/12/18 07:30:46;;;;;;;156.55;45.70;;;154.00;2227.20;;;;;;5072118;28;20025;-61
2020/12/18 07:33:14;;;;;;;147.10;44.03;;;154.10;2227.20;;;;;;5054259;28;20478;-63
2020/12/18 07:35:41;;;;;;;161.25;46.58;;;154.00;2227.20;;;;;;5072274;28;20029;-66
2020/12/18 07:38:28;;;;;;;168.45;46.40;;;154.00;2227.20;;;;;;5072207;28;20097;-56
2020/12/18 07:40:57;;;;;;;159.98;45.92;;;154.00;2227.20;;;;;;5072287;28;20025;-58
2020/12/18 07:43:26;;;;;;;148.80;43.30;;;154.00;2227.20;;;;;;5066177;28;20051;-68
2020/12/18 07:45:55;;;;;;;154.52;47.08;;;153.90;2227.20;;;;;;5072090;28;20027;-71
2020/12/18 07:48:26;;;;;;;144.98;44.92;;;153.90;2227.20;;;;;;5072376;28;20025;-67
2020/12/18 07:51:02;;;;;;;166.55;47.40;;;153.90;2227.20;;;;;;5072174;28;20078;-59
2020/12/18 07:53:29;;;;;;;154.27;47.03;;;153.90;2227.20;;;;;;5072166;28;20032;-62
2020/12/18 07:56:08;;;;;;;156.18;44.17;;;153.90;2227.20;;;;;;5053905;28;20078;-68
2020/12/18 07:58:44;;;;;;;148.10;44.95;;;153.90;2227.20;;;;;;5072225;28;20044;-60
2020/12/18 08:01:15;;;;;;;140.65;44.38;;;154.00;2227.20;;;;;;5053823;28;20043;-55
2020/12/18 08:03:51;;;;;;;136.23;41.17;;;154.10;2227.20;;;;;;5072048;28;20029;-66
2020/12/18 08:06:21;;;;;;;122.70;39.53;;;;;;;;;;5071435;28;20098;-59
2020/12/18 08:08:53;;;;;;;135.38;41.80;;;;;;;;;;5054336;28;20017;-67
2020/12/18 08:11:20;;;;;;;117.75;38.40;;;;;;;;;;5072024;28;20028;-65
2020/12/18 08:13:46;;;;;;;130.57;39.92;;;;;;;;;;5070841;28;20020;-62
2020/12/18 08:16:13;;;;;;;131.68;40.45;;;;;;;;;;5072571;28;20078;-60
2020/12/18 08:18:43;;;;;;;123.18;36.85;;;;;;;;;;5075655;28;20020;-57
2020/12/18 08:21:09;;;;;;;126.50;36.50;;;;;;;;;;5075522;28;20024;-63
2020/12/18 08:23:39;;;;;;;114.93;36.55;;;;;;;;;;5061475;28;20033;-59
2020/12/18 08:26:06;;;;;;;105.45;34.40;;;;;;;;;;5075399;28;20036;-58
2020/12/18 08:28:33;;;;;;;112.85;37.95;;;;;;;;;;5071545;28;20039;-57
2020/12/18 08:31:05;;;;;;;113.47;35.58;;;;;;;;;;5074342;28;20154;-58
2020/12/18 08:33:35;;;;;;;112.28;36.22;;;;;;;;;;5074013;28;20028;-59
2020/12/18 08:36:02;;;;;;;114.35;33.75;;;;;;;;;;5073468;28;20101;-57
2020/12/18 08:38:28;;;;;;;104.60;35.75;;;;;;;;;;5073587;28;20039;-60
2020/12/18 08:40:57;;;;;;;116.90;38.10;;;;;;;;;;5072121;28;20029;-61
2020/12/18 08:43:23;;;;;;;112.95;35.13;;;;;;;;;;5073095;28;20108;-61
2020/12/18 08:45:50;;;;;;;122.13;36.88;;;;;;;;;;5072896;28;20035;-57
2020/12/18 08:48:20;;;;;;;119.18;32.90;;;;;;;;;;5072867;28;20078;-56
2020/12/18 08:50:46;;;;;;;121.25;37.00;;;;;;;;;;5072500;28;20485;-68
2020/12/18 08:53:16;;;;;;;135.88;38.35;;;;;;;;;;5071970;28;20040;-58
2020/12/18 08:55:42;;;;;;;129.05;38.60;;;;;;;;;;5072365;28;20035;-60
2020/12/18 08:58:09;;;;;;;124.82;36.75;;;;;;;;;;5072739;28;20021;-55
2020/12/18 09:00:35;;;;;;;133.73;37.28;;;;;;;;;;5070284;28;20029;-59
2020/12/18 09:03:02;;;;;;;127.10;35.60;;;;;;;;;;5072009;28;20029;-60
2020/12/18 09:05:35;;;;;;;118.78;37.92;;;;;;;;;;5072941;28;20086;-59
2020/12/18 09:08:01;;;;;;;124.50;37.60;;;;;;;;;;5070317;28;20032;-59
2020/12/18 09:10:27;;;;;;;133.25;36.08;;;;;;;;;;5070053;28;20032;-55
2020/12/18 09:12:53;;;;;;;135.57;37.97;;;;;;;;;;5070188;28;20131;-57
2020/12/18 09:15:20;;;;;;;131.07;36.83;;;;;;;;;;5072189;28;20040;-62
2020/12/18 09:17:46;;;;;;;119.95;35.33;;;;;;;;;;5071299;28;20078;-63
2020/12/18 09:20:44;;;;;;;116.25;34.45;;;;;;;;;;5072132;28;20078;-57
2020/12/18 09:23:10;;;;;;;120.97;35.30;;;;;;;;;;5006620;28;20065;-61
2020/12/18 09:25:49;;;;;;;111.07;36.25;;;179.40;2201.60;;;;;;5009174;28;20531;-68
2020/12/18 09:28:20;;;;;;;112.35;35.67;;;179.30;2252.80;;;;;;5006834;28;20033;-58
2020/12/18 09:30:51;;;;;;;114.50;38.92;;;179.20;2201.60;;;;;;4993141;28;20042;-63
2020/12/18 09:33:29;;;;;;;109.22;34.28;;;154.50;2227.20;;;;;;5009161;28;20165;-68
2020/12/18 09:36:02;;;;;;;116.30;34.22;;;154.50;2227.20;;;;;;5008380;28;20057;-58
2020/12/18 09:38:32;;;;;;;119.88;35.05;;;154.50;2252.80;;;;;;5008163;28;20129;-60
2020/12/18 09:41:00;;;;;;;102.22;34.22;;;154.40;2227.20;;;;;;5008474;28;20373;-67
2020/12/18 09:43:26;;;;;;;103.38;32.95;;;154.50;2252.80;;;;;;5009872;28;20032;-59
2020/12/18 09:45:52;;;;;;;105.05;34.88;;;179.20;2227.20;;;;;;5007920;28;20037;-57
2020/12/18 09:48:19;;;;;;;98.47;34.15;;;179.20;2227.20;;;;;;5009336;28;20116;-66
2020/12/18 09:50:44;;;;;;;111.78;34.63;;;179.20;2227.20;;;;;;5011804;28;20097;-62
2020/12/18 09:53:10;;;;;;;117.95;36.95;;;179.20;2227.20;;;;;;4991864;28;20168;-70
2020/12/18 09:55:36;;;;;;;107.82;34.45;;;179.20;2227.20;;;;;;5010000;28;20025;-65
2020/12/18 09:58:03;;;;;;;98.53;34.63;;;179.20;2252.80;;;;;;5021357;28;20498;-60
2020/12/18 10:00:29;;;;;;;91.18;30.63;;;179.30;2227.20;;;;;;5071592;28;20413;-62
2020/12/18 10:02:56;;;;;;;97.90;33.05;;;179.30;2227.20;;;;;;5070422;28;20363;-58
2020/12/18 10:05:22;;;;;;;97.30;34.35;;;179.40;2201.60;;;;;;5071463;28;20053;-58
2020/12/18 10:07:48;;;;;;;106.70;32.85;;;179.40;2201.60;;;;;;5070632;28;20019;-56
2020/12/18 10:10:14;;;;;;;102.40;32.15;;;179.20;2252.80;;;;;;5071188;28;20034;-61
2020/12/18 10:12:39;;;;;;;109.93;36.15;;;179.20;2227.20;;;;;;5070881;28;20021;-59
2020/12/18 10:15:05;;;;;;;112.80;34.88;;;154.50;2252.80;;;;;;5069725;28;20395;-60
2020/12/18 10:17:31;;;;;;;94.00;32.33;;;179.20;2227.20;;;;;;5070006;28;20025;-63
2020/12/18 10:19:57;;;;;;;104.15;30.42;;;179.20;2227.20;;;;;;5070981;28;20115;-57
2020/12/18 10:22:23;;;;;;;92.40;31.45;;;179.30;2227.20;;;;;;5071290;28;20031;-60
2020/12/18 10:24:48;;;;;;;98.70;32.22;;;179.30;2227.20;;;;;;5071032;28;20028;-57
2020/12/18 10:27:14;;;;;;;94.65;31.60;;;179.30;2201.60;;;;;;5070594;28;20016;-60
2020/12/18 10:29:40;;;;;;;88.95;30.67;;;179.30;2227.20;;;;;;5071898;28;20024;-64
2020/12/18 10:32:06;;;;;;;94.65;30.35;;;179.20;2252.80;;;;;;5073024;28;20029;-60
2020/12/18 10:34:31;;;;;;;78.38;28.23;;;179.40;2227.20;;;;;;5072930;28;20047;-62
2020/12/18 10:36:57;;;;;;;80.13;29.45;;;179.40;2201.60;;;;;;5072725;28;20029;-59
2020/12/18 10:39:24;;;;;;;80.45;30.23;;;179.50;2201.60;;;;;;5072926;28;20064;-58
2020/12/18 10:41:53;;;;;;;83.68;30.58;;;179.50;2201.60;;;;;;5072545;28;20104;-63
2020/12/18 10:44:20;;;;;;;69.50;28.33;;;179.60;2176.00;;;;;;5073075;28;20025;-59
2020/12/18 10:46:46;;;;;;;71.97;30.77;;;179.60;2176.00;;;;;;5072751;28;20031;-68
2020/12/18 10:49:13;;;;;;;68.00;27.70;;;179.60;2176.00;;;;;;5072883;28;20107;-69
2020/12/18 10:51:43;;;;;;;67.88;25.95;;;179.60;2176.00;;;;;;5072228;28;20028;-74
2020/12/18 10:54:10;;;;;;;63.95;24.55;;;179.60;2176.00;;;;;;5072924;28;20024;-70
2020/12/18 10:56:43;;;;;;;68.50;26.60;;;179.80;2252.80;;;;;;5072290;28;20056;-64
2020/12/18 10:59:10;;;;;;;56.05;21.65;;;179.80;2150.40;;;;;;5073156;28;20024;-71
2020/12/18 11:01:36;;;;;;;52.25;22.58;;;179.30;2176.00;;;;;;5072333;28;20477;-62
2020/12/18 11:04:02;;;;;;;47.00;22.25;;;179.20;2252.80;;;;;;5072292;28;20029;-66
2020/12/18 11:06:28;;;;;;;52.33;21.73;;;154.40;2252.80;;;;;;5072043;28;20530;-65
2020/12/18 11:08:54;;;;;;;52.35;23.05;;;154.40;2227.20;;;;;;5072553;28;20387;-68
2020/12/18 11:11:20;;;;;;;49.45;22.70;;;154.50;2201.60;;;;;;5053848;28;20036;-73
2020/12/18 11:13:46;;;;;;;56.50;24.55;;;179.20;2227.20;;;;;;5072509;28;20378;-76
2020/12/18 11:16:12;;;;;;;45.95;22.73;;;179.40;2201.60;;;;;;5070928;28;20032;-64
2020/12/18 11:18:37;;;;;;;48.42;21.73;;;179.40;2176.00;;;;;;5072056;28;20417;-63
2020/12/18 11:21:05;;;;;;;40.85;20.60;;;179.30;2227.20;;;;;;5073315;28;20052;-68
2020/12/18 11:23:31;;;;;;;44.85;20.15;;;154.40;2252.80;;;;;;5072490;28;20491;-64
2020/12/18 11:25:57;;;;;;;39.00;19.77;;;154.50;2227.20;;;;;;5072691;28;20028;-68
2020/12/18 11:28:23;;;;;;;44.75;21.95;;;154.40;2252.80;;;;;;5072362;28;20025;-64
2020/12/18 11:30:49;;;;;;;39.10;20.50;;;154.40;2227.20;;;;;;5072061;28;20073;-58
2020/12/18 11:33:15;;;;;;;41.65;21.48;;;154.40;2227.20;;;;;;5071679;28;20115;-61
2020/12/18 11:35:41;;;;;;;38.65;18.17;;;154.40;2252.80;;;;;;5071353;28;20412;-70
2020/12/18 11:38:06;;;;;;;35.00;19.02;;;154.30;2252.80;;;;;;5071014;28;20498;-69
2020/12/18 11:40:32;;;;;;;38.25;18.77;;;154.40;2227.20;;;;;;5072754;28;20471;-74
2020/12/18 11:42:58;;;;;;;42.03;20.35;;;179.20;2201.60;;;;;;5072282;28;20092;-65
2020/12/18 11:45:24;;;;;;;44.47;19.55;;;179.20;2201.60;;;;;;5072105;28;20475;-57
2020/12/18 11:47:50;;;;;;;39.47;19.48;;;179.30;2176.00;;;;;;5072369;28;20017;-57
2020/12/18 11:50:17;;;;;;;41.95;19.95;;;154.50;2201.60;;;;;;5071752;28;20028;-61
2020/12/18 11:52:42;;;;;;;38.85;17.38;;;154.40;2201.60;;;;;;5071981;28;20023;-57
2020/12/18 11:55:08;;;;;;;40.40;19.58;;;154.40;2227.20;;;;;;5074308;28;20127;-57
2020/12/18 11:57:34;;;;;;;41.90;19.45;;;154.50;2201.60;;;;;;5075800;28;20074;-57
2020/12/18 11:59:59;;;;;;;37.92;17.70;;;154.30;2227.20;;;;;;5075187;28;20029;-60
2020/12/18 12:02:25;;;;;;;41.28;19.20;;;154.40;2176.00;;;;;;5076214;28;20390;-64
2020/12/18 12:04:51;;;;;;;34.30;18.35;;;154.50;2176.00;;;;;;5076022;28;20082;-68
2020/12/18 12:07:17;;;;;;;37.83;18.30;;;179.20;2176.00;;;;;;5076046;28;20021;-63
2020/12/18 12:09:42;;;;;;;37.83;19.00;;;179.30;2150.40;;;;;;5074898;28;20029;-57